Time;durP1;ratioP1;P1;durP2;ratioP2;P2;SDS_P1;SDS_P2;PMS_P1;PMS_P2;Temp;Humidity;BMP_temperature;BMP_pressure;BME280_temperature;BME280_humidity;BME280_pressure;Samples;Min_cycle;Max_cycle;Signal;HPM_P1;HPM_P2
2023/06/17 00:01:16;;;;;;;;;23.67;22.33;;;;;24.81;35.54;101185.22;4978689;28;45864;-70
2023/06/17 00:03:42;;;;;;;;;24.67;19.33;;;;;24.77;35.52;101178.16;4977712;28;45324;-70
2023/06/17 00:06:08;;;;;;;;;21.00;21.00;;;;;24.71;36.11;101181.03;4983945;28;45410;-71
2023/06/17 00:08:34;;;;;;;;;23.67;20.33;;;;;24.71;36.10;101191.84;4972165;28;45984;-70
2023/06/17 00:10:59;;;;;;;;;17.67;17.67;;;;;24.62;36.32;101174.06;4979578;28;45400;-70
2023/06/17 00:13:25;;;;;;;;;24.33;24.00;;;;;24.58;36.21;101177.78;4977573;28;45348;-70
2023/06/17 00:16:00;;;;;;;;;21.67;20.00;;;;;24.54;36.12;101173.41;4980619;28;45478;-70
2023/06/17 00:18:26;;;;;;;;;21.67;20.67;;;;;24.44;35.38;101163.75;4977704;28;45356;-70
2023/06/17 00:20:52;;;;;;;;;26.00;21.00;;;;;24.41;36.34;101166.50;4980086;28;45328;-70
2023/06/17 00:23:21;;;;;;;;;20.00;20.00;;;;;24.41;36.32;101174.63;4971846;28;45471;-70
2023/06/17 00:25:48;;;;;;;;;23.00;22.00;;;;;24.31;36.58;101155.06;4979268;28;45359;-70
2023/06/17 00:28:13;;;;;;;;;28.67;27.00;;;;;24.28;36.72;101166.84;4970776;28;45453;-70
2023/06/17 00:30:38;;;;;;;;;28.67;24.00;;;;;24.34;36.50;101177.50;4984024;28;45426;-70
2023/06/17 00:33:04;;;;;;;;;23.67;20.33;;;;;24.25;36.54;101163.31;4976293;28;45322;-70
2023/06/17 00:35:29;;;;;;;;;25.33;22.67;;;;;24.15;37.27;101159.13;4972758;28;45339;-70
2023/06/17 00:37:55;;;;;;;;;25.00;24.00;;;;;24.00;37.78;101134.28;4971486;28;45041;-71
2023/06/17 00:40:20;;;;;;;;;27.00;24.33;;;;;24.15;37.72;101162.69;4973118;28;45355;-70
2023/06/17 00:42:45;;;;;;;;;25.33;23.00;;;;;24.08;37.96;101151.16;4972080;28;45281;-70
2023/06/17 00:45:11;;;;;;;;;29.00;26.33;;;;;24.05;36.85;101153.94;4974570;28;45415;-70
2023/06/17 00:47:38;;;;;;;;;23.00;21.00;;;;;24.03;37.91;101147.72;4972941;28;45516;-70
2023/06/17 00:50:08;;;;;;;;;23.00;23.00;;;;;23.94;37.18;101137.13;4975304;28;46256;-70
2023/06/17 00:52:33;;;;;;;;;23.00;22.00;;;;;23.90;37.73;101143.53;4975574;28;45671;-70
2023/06/17 00:54:59;;;;;;;;;26.00;23.00;;;;;23.83;37.46;101137.38;4977406;28;45356;-70
2023/06/17 00:57:24;;;;;;;;;26.00;22.67;;;;;23.77;37.73;101133.97;4973153;28;45509;-72
2023/06/17 00:59:50;;;;;;;;;22.33;19.67;;;;;23.71;38.17;101131.44;4973342;28;45363;-70
2023/06/17 01:02:15;;;;;;;;;24.33;24.00;;;;;23.66;38.55;101123.41;4975007;28;45465;-70
2023/06/17 01:04:46;;;;;;;;;25.67;23.33;;;;;23.70;38.23;101130.50;4983788;28;45931;-71
2023/06/17 01:07:39;;;;;;;;;21.00;19.67;;;;;23.68;38.34;101127.84;4976474;28;45429;-70
2023/06/17 01:10:12;;;;;;;;;24.33;24.33;;;;;23.63;38.55;101121.66;4978196;28;45284;-71
2023/06/17 01:12:40;;;;;;;;;28.33;25.67;;;;;23.62;39.03;101125.28;4971089;28;45406;-71
2023/06/17 01:15:10;;;;;;;;;27.33;25.00;;;;;23.58;39.34;101115.50;4978439;28;45289;-71
2023/06/17 01:17:36;;;;;;;;;27.67;25.00;;;;;23.54;39.10;101119.19;4972075;28;45499;-71
2023/06/17 01:20:03;;;;;;;;;26.00;22.00;;;;;23.56;38.41;101124.56;4978509;28;45407;-70
2023/06/17 01:22:29;;;;;;;;;24.33;23.67;;;;;23.53;38.40;101130.91;4973515;28;46062;-71
2023/06/17 01:24:56;;;;;;;;;25.33;24.33;;;;;23.51;39.05;101124.66;4978801;28;45237;-71
2023/06/17 01:27:23;;;;;;;;;22.67;22.67;;;;;23.48;38.44;101129.25;4973453;28;45511;-71
2023/06/17 01:29:48;;;;;;;;;24.67;23.67;;;;;23.39;39.61;101112.38;4978532;28;45360;-70
2023/06/17 01:32:14;;;;;;;;;28.67;24.67;;;;;23.47;39.74;101128.38;4973041;28;45279;-71
2023/06/17 01:34:40;;;;;;;;;25.67;23.33;;;;;23.45;39.59;101123.00;4977610;28;45464;-71
2023/06/17 01:37:11;;;;;;;;;27.33;23.67;;;;;23.42;39.40;101123.09;4974585;28;45558;-71
2023/06/17 01:39:40;;;;;;;;;25.67;23.67;;;;;23.40;39.69;101108.72;4982309;28;46151;-70
2023/06/17 01:42:11;;;;;;;;;25.00;22.67;;;;;23.42;39.67;101120.38;4976061;28;45418;-70
2023/06/17 01:44:38;;;;;;;;;23.67;23.00;;;;;23.40;39.33;101107.84;4981686;28;45233;-71
2023/06/17 01:47:04;;;;;;;;;23.67;23.00;;;;;23.38;39.87;101094.38;4976668;28;45443;-71
2023/06/17 01:49:29;;;;;;;;;23.00;23.00;;;;;23.34;39.24;101099.91;4981267;28;45341;-70
2023/06/17 01:51:55;;;;;;;;;24.33;23.67;;;;;23.42;39.28;101109.59;4978992;28;45415;-70
2023/06/17 01:54:20;;;;;;;;;26.00;26.00;;;;;23.40;39.54;101107.84;4981864;28;45944;-70
2023/06/17 01:56:46;;;;;;;;;31.33;30.00;;;;;23.42;38.77;101111.41;4992791;28;50758;-71
2023/06/17 01:59:11;;;;;;;;;34.33;32.33;;;;;23.28;39.84;101086.56;4973403;28;45377;-71
2023/06/17 02:01:36;;;;;;;;;33.33;31.00;;;;;23.29;40.50;101099.13;4978331;28;45369;-70
2023/06/17 02:04:02;;;;;;;;;31.00;27.67;;;;;23.28;40.32;101091.97;4991249;28;45494;-71
2023/06/17 02:06:27;;;;;;;;;36.67;31.33;;;;;23.27;41.06;101103.66;4986493;28;45312;-71
2023/06/17 02:08:53;;;;;;;;;30.33;29.33;;;;;23.17;41.16;101095.78;4981180;28;47026;-70
2023/06/17 02:11:18;;;;;;;;;36.67;33.67;;;;;23.26;41.57;101107.28;4980259;28;45380;-70
2023/06/17 02:13:44;;;;;;;;;34.33;32.67;;;;;23.17;39.86;101101.19;4965011;28;45376;-71
2023/06/17 02:16:09;;;;;;;;;33.00;31.33;;;;;23.16;41.23;101112.91;4974013;28;45479;-71
2023/06/17 02:18:35;;;;;;;;;35.33;31.00;;;;;23.06;40.97;101102.34;4969285;28;45977;-71
2023/06/17 02:21:01;;;;;;;;;38.00;33.67;;;;;23.01;41.55;101094.34;4981570;28;46803;-70
2023/06/17 02:23:27;;;;;;;;;44.00;35.67;;;;;23.09;41.24;101108.56;4969681;28;45323;-71
2023/06/17 02:25:52;;;;;;;;;38.33;32.00;;;;;23.10;41.57;101102.22;4981756;28;45335;-70
2023/06/17 02:28:17;;;;;;;;;34.67;30.33;;;;;23.00;41.99;101096.19;4969282;28;45305;-72
2023/06/17 02:30:43;;;;;;;;;36.00;32.67;;;;;22.97;41.88;101096.25;4974553;28;45280;-71
2023/06/17 02:33:08;;;;;;;;;38.50;32.00;;;;;22.94;42.79;101093.59;4971957;28;45402;-71
2023/06/17 02:35:34;;;;;;;;;36.00;32.00;;;;;22.90;42.50;101093.69;4974276;28;45335;-71
2023/06/17 02:38:00;;;;;;;;;36.67;31.67;;;;;22.94;41.90;101095.41;4973674;28;45994;-71
2023/06/17 02:40:25;;;;;;;;;28.67;28.00;;;;;22.87;43.12;101083.84;4996236;28;45294;-71
2023/06/17 02:42:50;;;;;;;;;38.00;32.00;;;;;22.74;42.90;101063.47;4975715;28;45481;-71
2023/06/17 02:45:16;;;;;;;;;39.33;32.33;;;;;22.82;41.63;101069.56;4980880;28;55819;-71
2023/06/17 02:47:42;;;;;;;;;39.00;32.33;;;;;22.84;41.98;101069.56;4976988;28;45474;-71
2023/06/17 02:50:08;;;;;;;;;38.67;33.00;;;;;22.53;42.00;101019.03;4981361;28;45321;-71
2023/06/17 02:52:34;;;;;;;;;30.00;27.67;;;;;22.82;41.90;101069.56;4978876;28;45460;-71
2023/06/17 02:55:00;;;;;;;;;37.33;31.67;;;;;22.80;43.14;101063.34;4980199;28;45293;-71
2023/06/17 02:57:25;;;;;;;;;35.67;31.00;;;;;22.82;43.02;101066.88;4974131;28;45531;-71
2023/06/17 02:59:50;;;;;;;;;30.33;29.00;;;;;22.81;42.56;101072.31;4989321;28;45600;-71
2023/06/17 03:02:16;;;;;;;;;36.33;29.33;;;;;22.85;42.01;101068.63;4978928;28;45361;-71
2023/06/17 03:04:41;;;;;;;;;35.67;31.00;;;;;22.74;43.28;101052.69;4984695;28;45516;-71
2023/06/17 03:07:07;;;;;;;;;27.67;26.33;;;;;22.72;41.81;101050.03;4978443;28;51135;-71
2023/06/17 03:09:32;;;;;;;;;31.33;29.00;;;;;22.74;42.82;101060.75;4975883;28;45508;-71
2023/06/17 03:12:04;;;;;;;;;33.33;31.33;;;;;22.75;42.52;101051.78;4979221;28;45455;-71
2023/06/17 03:14:30;;;;;;;;;26.00;25.00;;;;;22.71;43.22;101045.59;4975797;28;45372;-71
2023/06/17 03:16:59;;;;;;;;;29.00;28.67;;;;;22.78;41.95;101059.78;4976540;28;45210;-71
2023/06/17 03:19:25;;;;;;;;;28.33;28.00;;;;;22.77;42.80;101063.44;4980557;28;46503;-71
2023/06/17 03:21:51;;;;;;;;;29.33;29.33;;;;;22.78;42.25;101057.97;4976747;28;45474;-71
2023/06/17 03:24:17;;;;;;;;;32.67;29.00;;;;;22.74;42.06;101047.28;4979014;28;45296;-71
2023/06/17 03:26:42;;;;;;;;;33.00;30.00;;;;;22.86;43.02;101056.94;4976979;28;45842;-71
2023/06/17 03:29:08;;;;;;;;;32.67;28.67;;;;;22.87;41.56;101054.19;4977906;28;45340;-71
2023/06/17 03:31:33;;;;;;;;;30.33;29.33;;;;;22.87;43.60;101053.31;4978330;28;45225;-71
2023/06/17 03:33:58;;;;;;;;;31.33;26.67;;;;;22.82;43.45;101047.13;4974666;28;45299;-71
2023/06/17 03:36:29;;;;;;;;;33.33;30.33;;;;;22.88;43.17;101053.28;4968508;28;45513;-71
2023/06/17 03:38:56;;;;;;;;;27.67;27.33;;;;;22.89;43.19;101049.66;4984383;28;45294;-71
2023/06/17 03:41:26;;;;;;;;;33.33;28.67;;;;;22.92;42.46;101052.28;4970995;28;45511;-71
2023/06/17 03:43:51;;;;;;;;;21.33;21.33;;;;;22.90;42.93;101045.16;4972009;28;45243;-71
2023/06/17 03:46:17;;;;;;;;;28.00;27.00;;;;;22.90;43.28;101053.25;4970781;28;46035;-71
2023/06/17 03:48:43;;;;;;;;;27.67;25.33;;;;;22.79;43.39;101040.88;4968923;28;45432;-71
2023/06/17 03:51:08;;;;;;;;;25.33;20.33;;;;;22.78;42.80;101038.22;4970085;28;45550;-71
2023/06/17 03:53:33;;;;;;;;;31.00;29.00;;;;;22.90;43.76;101061.31;4967979;28;45314;-71
2023/06/17 03:55:59;;;;;;;;;29.33;26.33;;;;;22.78;43.50;101033.72;4968694;28;45305;-72
2023/06/17 03:58:24;;;;;;;;;24.33;24.33;;;;;22.86;42.92;101043.47;4981315;28;45360;-71
2023/06/17 04:00:50;;;;;;;;;30.33;26.67;;;;;22.96;43.20;101058.53;4967140;28;45370;-72
2023/06/17 04:03:18;;;;;;;;;26.67;25.00;;;;;22.94;43.04;101055.84;4968171;28;45474;-71
2023/06/17 04:05:44;;;;;;;;;27.67;26.00;;;;;22.96;43.94;101063.91;4979757;28;45607;-71
2023/06/17 04:08:10;;;;;;;;;27.00;25.00;;;;;22.95;43.93;101063.03;4966840;28;45366;-71
2023/06/17 04:10:35;;;;;;;;;34.00;26.67;;;;;22.95;43.90;101056.72;4971894;28;45453;-71
2023/06/17 04:13:01;;;;;;;;;31.33;26.33;;;;;22.89;43.75;101063.13;4971236;28;45257;-72
2023/06/17 04:15:26;;;;;;;;;27.33;26.00;;;;;22.93;42.86;101069.34;4978686;28;45627;-72
2023/06/17 04:17:52;;;;;;;;;28.33;26.67;;;;;22.83;43.75;101057.91;4971769;28;48501;-72
2023/06/17 04:20:17;;;;;;;;;28.33;28.33;;;;;22.86;43.05;101065.03;4978014;28;45846;-71
2023/06/17 04:22:43;;;;;;;;;22.67;21.67;;;;;22.87;43.68;101061.41;4969565;28;47536;-71
2023/06/17 04:25:11;;;;;;;;;31.67;26.00;;;;;22.86;43.78;101056.94;4976899;28;45321;-71
2023/06/17 04:27:38;;;;;;;;;28.00;25.67;;;;;22.84;43.81;101048.00;4971215;28;45501;-71
2023/06/17 04:30:08;;;;;;;;;29.67;26.67;;;;;22.85;43.06;101049.75;4978698;28;45475;-71
2023/06/17 04:32:35;;;;;;;;;26.33;24.33;;;;;22.84;43.80;101058.78;4973327;28;45510;-71
2023/06/17 04:35:03;;;;;;;;;25.67;24.67;;;;;22.91;44.06;101060.38;4974470;28;45319;-71
2023/06/17 04:37:28;;;;;;;;;28.00;26.33;;;;;22.84;43.90;101050.69;4984451;28;45619;-71
2023/06/17 04:39:54;;;;;;;;;24.67;24.67;;;;;22.85;43.91;101055.16;4972885;28;45230;-70
2023/06/17 04:42:19;;;;;;;;;25.33;24.33;;;;;22.92;43.62;101054.09;4966840;28;51731;-71
2023/06/17 04:44:48;;;;;;;;;26.67;24.33;;;;;22.97;43.54;101060.31;4968006;28;46062;-70
2023/06/17 04:47:16;;;;;;;;;22.67;21.00;;;;;22.80;43.41;101031.00;4965377;28;46105;-71
2023/06/17 04:49:44;;;;;;;;;28.67;28.00;;;;;23.00;43.42;101057.53;4978469;28;45356;-71
2023/06/17 04:52:10;;;;;;;;;21.00;21.00;;;;;22.90;42.97;101023.59;4973889;28;45559;-71
2023/06/17 04:54:36;;;;;;;;;25.00;22.33;;;;;23.08;43.18;101052.88;4968903;28;46351;-71
2023/06/17 04:57:02;;;;;;;;;19.00;17.00;;;;;23.10;42.76;101048.28;4974440;28;45413;-71
2023/06/17 04:59:28;;;;;;;;;21.00;19.33;;;;;23.14;42.05;101044.63;4976912;28;45441;-71
2023/06/17 05:01:53;;;;;;;;;22.00;19.00;;;;;23.19;42.68;101045.41;4977055;28;46993;-71
2023/06/17 05:04:19;;;;;;;;;18.33;18.33;;;;;23.23;43.16;101039.00;4981293;28;45571;-71
2023/06/17 05:06:45;;;;;;;;;19.67;19.67;;;;;23.27;41.46;101047.00;4978209;28;45372;-71
2023/06/17 05:09:10;;;;;;;;;20.33;18.33;;;;;23.21;42.95;101027.34;4977649;28;45474;-71
2023/06/17 05:11:38;;;;;;;;;22.67;22.33;;;;;23.35;43.48;101037.81;4976693;28;45558;-71
2023/06/17 05:14:04;;;;;;;;;20.33;20.33;;;;;23.37;42.25;101029.69;4972302;28;46231;-71
2023/06/17 05:16:29;;;;;;;;;17.00;15.00;;;;;23.43;40.36;101032.22;4977840;28;45396;-71
2023/06/17 05:18:55;;;;;;;;;18.00;17.00;;;;;23.51;40.97;101034.75;4973138;28;45269;-71
2023/06/17 05:21:23;;;;;;;;;16.67;14.67;;;;;23.56;40.45;101043.59;4973293;28;45483;-69
2023/06/17 05:23:49;;;;;;;;;21.33;18.67;;;;;23.62;39.98;101035.34;4972222;28;45463;-70
2023/06/17 05:26:14;;;;;;;;;19.33;17.33;;;;;23.65;39.65;101027.16;4977369;28;45463;-69
2023/06/17 05:28:40;;;;;;;;;15.33;15.33;;;;;23.66;39.32;101027.09;4972509;28;45345;-70
2023/06/17 05:31:05;;;;;;;;;17.33;16.00;;;;;23.77;39.26;101037.66;4977528;28;45547;-70
2023/06/17 05:33:30;;;;;;;;;10.33;10.33;;;;;23.81;39.12;101023.19;4973106;28;45335;-70
2023/06/17 05:36:00;;;;;;;;;18.00;15.00;;;;;23.63;38.58;100986.72;4977369;28;45471;-70
2023/06/17 05:38:25;;;;;;;;;13.00;13.00;;;;;23.96;39.10;101027.25;4970372;28;45430;-70
2023/06/17 05:40:51;;;;;;;;;15.67;14.67;;;;;24.09;39.76;101039.50;4977898;28;45272;-69
2023/06/17 05:43:16;;;;;;;;;15.67;14.67;;;;;24.13;38.51;101037.59;4974205;28;46408;-70
2023/06/17 05:45:41;;;;;;;;;17.00;15.33;;;;;24.19;38.91;101040.13;4978718;28;48413;-70
2023/06/17 05:48:06;;;;;;;;;21.00;18.33;;;;;24.28;39.26;101050.69;4976294;28;45396;-71
2023/06/17 05:50:32;;;;;;;;;21.33;16.00;;;;;24.30;38.61;101029.00;4973995;28;49915;-71
2023/06/17 05:52:57;;;;;;;;;14.67;14.67;;;;;24.41;38.81;101040.38;4973283;28;45793;-70
2023/06/17 05:55:23;;;;;;;;;17.67;15.33;;;;;24.47;38.20;101034.84;4977125;28;45232;-70
2023/06/17 05:57:48;;;;;;;;;14.67;13.67;;;;;24.53;38.60;101041.88;4969479;28;45423;-70
2023/06/17 06:00:15;;;;;;;;;18.00;18.00;;;;;24.51;38.01;101027.53;4975425;28;45368;-71
2023/06/17 06:02:40;;;;;;;;;15.33;14.00;;;;;24.56;37.68;101029.19;4976400;28;45459;-71
2023/06/17 06:05:06;;;;;;;;;16.33;16.33;;;;;24.61;37.25;101037.13;4978916;28;45384;-70
2023/06/17 06:07:31;;;;;;;;;14.67;13.67;;;;;24.73;37.62;101042.19;4974629;28;45374;-70
2023/06/17 06:09:57;;;;;;;;;15.67;15.00;;;;;24.74;37.88;101025.03;4974631;28;45361;-70
2023/06/17 06:12:22;;;;;;;;;13.67;13.67;;;;;24.87;37.58;101044.47;4973047;28;45568;-70
2023/06/17 06:14:47;;;;;;;;;15.00;15.00;;;;;24.94;36.97;101047.84;4978218;28;45396;-70
2023/06/17 06:17:13;;;;;;;;;14.00;14.00;;;;;24.86;37.00;101021.03;4970644;28;45492;-70
2023/06/17 06:19:38;;;;;;;;;15.33;15.33;;;;;25.02;36.82;101045.78;4976432;28;45443;-70
2023/06/17 06:22:04;;;;;;;;;16.67;15.67;;;;;25.08;37.18;101036.59;4973982;28;45390;-70
2023/06/17 06:24:29;;;;;;;;;18.00;17.00;;;;;25.25;36.96;101046.91;4971766;28;45293;-70
2023/06/17 06:26:54;;;;;;;;;14.00;14.00;;;;;25.41;37.47;101057.16;4977122;28;45221;-70
2023/06/17 06:29:20;;;;;;;;;14.00;14.00;;;;;25.50;36.95;101041.56;4976623;28;46009;-70
2023/06/17 06:31:46;;;;;;;;;17.33;15.67;;;;;25.64;36.75;101044.69;4978192;28;46211;-70
2023/06/17 06:34:11;;;;;;;;;19.00;16.67;;;;;25.76;35.93;101052.38;4978360;28;45274;-71
2023/06/17 06:36:36;;;;;;;;;13.33;12.00;;;;;25.85;35.84;101056.63;4994375;28;45255;-70
2023/06/17 06:39:02;;;;;;;;;17.00;14.33;;;;;25.89;35.96;101044.75;4977199;28;45249;-70
2023/06/17 06:41:27;;;;;;;;;15.00;15.00;;;;;26.03;35.70;101061.41;4979346;28;46038;-70
2023/06/17 06:43:52;;;;;;;;;15.33;14.67;;;;;26.11;35.42;101063.84;4976997;28;45216;-70
2023/06/17 06:46:18;;;;;;;;;17.33;15.00;;;;;26.15;35.33;101061.88;4979699;28;45622;-70
2023/06/17 06:48:43;;;;;;;;;15.00;14.67;;;;;26.26;34.84;101057.84;4975041;28;45517;-71
2023/06/17 06:51:09;;;;;;;;;12.67;11.33;;;;;26.34;35.16;101072.00;4980372;28;46060;-70
2023/06/17 06:53:34;;;;;;;;;16.00;14.67;;;;;26.42;34.53;101071.72;4974986;28;45756;-71
2023/06/17 06:55:59;;;;;;;;;16.00;15.00;;;;;26.48;34.98;101074.19;4980667;28;45569;-71
2023/06/17 06:58:25;;;;;;;;;17.00;13.00;;;;;26.55;34.82;101073.06;4976095;28;45486;-71
2023/06/17 07:00:50;;;;;;;;;13.00;13.00;;;;;26.66;34.69;101072.63;4981172;28;46106;-71
2023/06/17 07:03:15;;;;;;;;;13.67;13.67;;;;;26.69;35.12;101068.94;4977538;28;45536;-71
2023/06/17 07:05:41;;;;;;;;;12.00;12.00;;;;;26.81;34.91;101070.31;4986430;28;45516;-71
2023/06/17 07:08:06;;;;;;;;;13.67;12.00;;;;;26.90;34.38;101073.53;4970520;28;45971;-71
2023/06/17 07:10:33;;;;;;;;;11.67;9.00;;;;;26.95;33.33;101078.78;4980830;28;46174;-71
2023/06/17 07:12:58;;;;;;;;;15.00;13.00;;;;;26.94;33.61;101060.72;4971561;28;45332;-72
2023/06/17 07:15:24;;;;;;;;;14.00;13.33;;;;;27.08;33.90;101073.75;4981206;28;45284;-71
2023/06/17 07:17:49;;;;;;;;;14.67;14.67;;;;;26.97;33.65;101052.44;4972092;28;45546;-71
2023/06/17 07:20:15;;;;;;;;;11.25;11.25;;;;;27.17;33.91;101074.31;4981045;28;45832;-71
2023/06/17 07:22:40;;;;;;;;;13.00;12.67;;;;;27.12;34.13;101067.25;4973692;28;45387;-71
2023/06/17 07:25:06;;;;;;;;;12.50;12.50;;;;;27.24;33.33;101074.94;4975228;28;45448;-72
2023/06/17 07:27:31;;;;;;;;;13.67;13.33;;;;;27.20;34.05;101066.03;4975224;28;45351;-71
2023/06/17 07:29:56;;;;;;;;;16.00;12.75;;;;;27.31;33.66;101075.53;4980739;28;51200;-71
2023/06/17 07:32:22;;;;;;;;;11.33;11.33;;;;;27.40;34.18;101077.91;4973546;28;45226;-71
2023/06/17 07:34:48;;;;;;;;;13.33;11.67;;;;;27.43;32.93;101080.50;4979765;28;45427;-72
2023/06/17 07:37:13;;;;;;;;;13.75;12.50;;;;;27.46;33.05;101085.78;4974180;28;45419;-70
2023/06/17 07:39:38;;;;;;;;;14.25;12.75;;;;;27.45;33.28;101075.88;4980502;28;45387;-70
2023/06/17 07:42:04;;;;;;;;;13.00;13.00;;;;;27.50;33.95;101070.25;4974741;28;45237;-70
2023/06/17 07:44:29;;;;;;;;;12.00;11.00;;;;;27.52;34.54;101074.66;4976729;28;45467;-70
2023/06/17 07:46:55;;;;;;;;;12.00;12.00;;;;;27.49;34.06;101069.38;4976076;28;45313;-70
2023/06/17 07:49:20;;;;;;;;;15.00;13.50;;;;;27.53;33.29;101083.69;4977431;28;45323;-70
2023/06/17 07:51:46;;;;;;;;;14.00;11.75;;;;;27.47;33.34;101068.53;4972804;28;45405;-70
2023/06/17 07:54:11;;;;;;;;;18.00;15.25;;;;;27.56;34.13;101072.69;4977903;28;45408;-70
2023/06/17 07:56:36;;;;;;;;;12.00;12.00;;;;;27.55;34.07;101074.53;4977513;28;45344;-70
2023/06/17 07:59:02;;;;;;;;;14.25;14.25;;;;;27.61;33.94;101074.28;4974143;28;45828;-71
2023/06/17 08:01:27;;;;;;;;;13.25;12.25;;;;;27.70;34.13;101074.84;4977217;28;45529;-70
2023/06/17 08:03:53;;;;;;;;;12.50;12.25;;;;;27.77;33.15;101068.19;4970603;28;45452;-70
2023/06/17 08:06:18;;;;;;;;;14.25;11.75;;;;;27.81;33.42;101072.56;4980373;28;45492;-70
2023/06/17 08:08:43;;;;;;;;;11.25;11.25;;;;;27.85;32.84;101068.78;4975406;28;45434;-70
2023/06/17 08:11:09;;;;;;;;;13.00;11.50;;;;;27.84;33.65;101056.13;4979241;28;45364;-70
2023/06/17 08:13:34;;;;;;;;;14.50;13.50;;;;;27.85;33.08;101053.38;4971473;28;45389;-70
2023/06/17 08:16:00;;;;;;;;;14.50;13.50;;;;;27.99;32.54;101063.63;4978774;28;46058;-70
2023/06/17 08:18:25;;;;;;;;;13.75;13.75;;;;;28.09;33.40;101059.56;4971282;28;46830;-70
2023/06/17 08:20:51;;;;;;;;;14.00;13.75;;;;;28.14;33.53;101045.75;4980272;28;45227;-70
2023/06/17 08:23:16;;;;;;;;;15.00;13.25;;;;;28.26;33.44;101044.31;4977915;28;45529;-68
2023/06/17 08:25:42;;;;;;;;;12.75;12.75;;;;;28.46;33.32;101047.06;4978567;28;45670;-69
2023/06/17 08:28:08;;;;;;;;;11.50;10.75;;;;;28.59;33.04;101044.63;4973525;28;45306;-68
2023/06/17 08:30:33;;;;;;;;;12.25;12.25;;;;;28.76;31.60;101052.00;4991588;28;45397;-68
2023/06/17 08:32:58;;;;;;;;;14.25;12.00;;;;;28.84;32.04;101024.41;4974930;28;45391;-70
2023/06/17 08:35:24;;;;;;;;;13.25;13.25;;;;;28.96;31.65;101019.28;4979788;28;45257;-69
2023/06/17 08:37:49;;;;;;;;;11.50;10.25;;;;;29.23;31.99;101022.47;4976903;28;47329;-70
2023/06/17 08:40:15;;;;;;;;;13.75;13.75;;;;;29.33;30.49;101017.47;4967739;28;45329;-70
2023/06/17 08:42:42;;;;;;;;;14.75;13.75;;;;;29.62;31.40;101036.88;4970205;28;45419;-70
2023/06/17 08:45:08;;;;;;;;;13.75;12.00;;;;;29.77;30.76;101018.88;4975020;28;45357;-69
2023/06/17 08:47:35;;;;;;;;;56.00;44.33;;;;;29.87;31.28;101022.91;4972425;28;46345;-70
2023/06/17 08:50:01;;;;;;;;;22.25;18.00;;;;;30.07;30.06;101027.28;4976563;28;45249;-68
2023/06/17 08:52:28;;;;;;;;;20.50;16.00;;;;;30.20;29.74;101017.50;4977278;28;45435;-68
2023/06/17 08:54:54;;;;;;;;;13.75;13.75;;;;;30.50;29.51;101030.44;4977334;28;45187;-70
2023/06/17 08:57:19;;;;;;;;;22.25;20.50;;;;;30.67;31.52;101026.75;4974596;28;46500;-71
2023/06/17 08:59:45;;;;;;;;;14.00;14.00;;;;;30.63;37.58;101023.34;4971522;28;45415;-71
2023/06/17 09:02:14;;;;;;;;;14.50;14.50;;;;;30.46;33.67;101024.28;4976887;28;45373;-70
2023/06/17 09:04:40;;;;;;;;;18.00;15.00;;;;;30.38;33.45;101029.28;4976907;28;45245;-68
2023/06/17 09:07:08;;;;;;;;;14.25;12.25;;;;;30.06;39.10;101020.09;4978135;28;45339;-69
2023/06/17 09:09:33;;;;;;;;;18.25;16.75;;;;;29.76;40.65;101018.00;4977894;28;45327;-70
2023/06/17 09:12:05;;;;;;;;;14.25;13.25;;;;;29.42;40.54;101030.63;4974317;28;45359;-71
2023/06/17 09:14:30;;;;;;;;;17.50;17.25;;;;;28.94;36.73;101026.63;4972295;28;45277;-69
2023/06/17 09:16:57;;;;;;;;;19.50;15.50;;;;;28.57;42.71;101027.50;4973576;28;45700;-71
2023/06/17 09:19:22;;;;;;;;;17.25;16.50;;;;;28.44;41.71;101034.47;4973561;28;45347;-70
2023/06/17 09:21:48;;;;;;;;;17.50;16.75;;;;;28.25;43.23;101027.13;4975527;28;45324;-71
2023/06/17 09:24:14;;;;;;;;;18.25;16.00;;;;;28.12;41.88;101020.50;4964975;28;45583;-70
2023/06/17 09:26:41;;;;;;;;;17.50;16.75;;;;;28.11;42.98;101035.91;4974540;28;45476;-72
2023/06/17 09:29:12;;;;;;;;;16.00;16.00;;;;;28.17;42.94;101028.44;4968423;28;45478;-74
2023/06/17 09:31:51;;;;;;;;;18.50;16.75;;;;;28.39;41.73;101029.22;4975633;28;45418;-74
2023/06/17 09:34:18;;;;;;;;;18.00;18.00;;;;;28.44;44.30;101026.31;4970047;28;45333;-74
2023/06/17 09:36:44;;;;;;;;;20.25;19.25;;;;;28.16;44.43;101018.50;4976140;28;45681;-70
2023/06/17 09:39:11;;;;;;;;;17.50;16.25;;;;;27.99;45.70;101025.59;4969893;28;45297;-71
2023/06/17 09:41:41;;;;;;;;;17.25;15.75;;;;;27.92;45.53;101020.47;4976872;28;45222;-70
2023/06/17 09:44:07;;;;;;;;;17.00;16.50;;;;;28.08;45.47;101021.56;4971120;28;45368;-70
2023/06/17 09:46:39;;;;;;;;;16.75;16.75;;;;;28.30;42.56;101024.19;4976914;28;46486;-72
2023/06/17 09:49:15;;;;;;;;;19.00;17.00;;;;;28.42;40.78;101020.94;4964695;28;45563;-70
2023/06/17 09:51:42;;;;;;;;;17.00;16.50;;;;;28.63;42.50;101027.22;4972074;28;45562;-69
2023/06/17 09:54:08;;;;;;;;;21.50;18.75;;;;;28.45;52.86;101018.06;4975788;28;45309;-70
2023/06/17 09:56:35;;;;;;;;;27.00;25.00;;;;;28.20;48.97;101025.56;4976236;28;45422;-70
2023/06/17 09:59:11;;;;;;;;;23.25;19.00;;;;;28.06;47.79;101018.03;4974341;28;45485;-70
2023/06/17 10:01:40;;;;;;;;;20.75;19.50;;;;;27.99;44.69;101001.13;4977900;28;45506;-70
2023/06/17 10:04:09;;;;;;;;;21.25;18.00;;;;;28.30;44.80;101018.75;4979004;28;45996;-71
2023/06/17 10:06:37;;;;;;;;;23.50;21.00;;;;;28.54;45.62;101014.06;4980490;28;48272;-71
2023/06/17 10:09:08;;;;;;;;;18.75;17.25;;;;;28.74;45.75;101019.44;4975953;28;45250;-72
2023/06/17 10:11:34;;;;;;;;;21.25;19.50;;;;;28.95;43.00;101012.03;4980552;28;45502;-72
2023/06/17 10:14:07;;;;;;;;;18.00;18.00;;;;;29.11;43.82;101008.63;4973166;28;45181;-71
2023/06/17 10:16:36;;;;;;;;;17.75;17.00;;;;;29.15;42.36;101013.81;4978908;28;46143;-72
2023/06/17 10:19:05;;;;;;;;;23.50;19.00;;;;;29.30;41.91;101003.16;4980776;28;45328;-73
2023/06/17 10:21:33;;;;;;;;;18.75;18.75;;;;;29.47;42.44;100997.72;4980226;28;45398;-72
2023/06/17 10:24:01;;;;;;;;;19.75;18.50;;;;;29.64;42.49;100980.53;4976819;28;45545;-73
2023/06/17 10:26:28;;;;;;;;;18.50;18.50;;;;;29.90;39.09;100998.22;4979167;28;45460;-74
2023/06/17 10:28:54;;;;;;;;;17.25;15.75;;;;;30.07;39.13;100997.31;4974298;28;45633;-73
2023/06/17 10:31:24;;;;;;;;;23.25;21.50;;;;;30.27;38.71;100999.84;4978305;28;45223;-73
2023/06/17 10:33:51;;;;;;;;;24.00;22.00;;;;;30.53;36.81;100992.09;4977568;28;45336;-73
2023/06/17 10:36:20;;;;;;;;;19.75;19.75;;;;;30.81;36.92;100983.25;4979975;28;46340;-73
2023/06/17 10:38:56;;;;;;;;;19.50;17.00;;;;;31.11;37.14;100985.16;4972944;28;45443;-73
2023/06/17 10:41:22;;;;;;;;;22.00;21.50;;;;;31.53;36.76;100987.22;4978677;28;45692;-71
2023/06/17 10:43:49;;;;;;;;;19.50;18.00;;;;;31.91;35.72;100996.78;4979072;28;45402;-73
2023/06/17 10:46:22;;;;;;;;;19.75;19.00;;;;;32.29;35.54;100978.88;4980066;28;45364;-73
2023/06/17 10:48:48;;;;;;;;;20.75;19.75;;;;;32.62;33.97;100985.91;4973187;28;45583;-72
2023/06/17 10:51:15;;;;;;;;;22.50;19.75;;;;;33.01;33.41;100980.69;4980373;28;45365;-71
2023/06/17 10:53:46;;;;;;;;;24.25;23.00;;;;;33.21;33.95;100956.41;4976146;28;45292;-71
2023/06/17 10:56:11;;;;;;;;;20.50;18.00;;;;;33.60;33.60;100971.13;4980165;28;45640;-72
2023/06/17 10:58:44;;;;;;;;;20.00;17.25;;;;;33.90;32.33;100969.09;4976788;28;45384;-72
2023/06/17 11:01:11;;;;;;;;;18.25;16.75;;;;;34.15;31.64;100963.63;4980321;28;45376;-72
2023/06/17 11:03:37;;;;;;;;;23.50;23.50;;;;;34.60;31.20;100971.41;4970441;28;46182;-72
2023/06/17 11:06:04;;;;;;;;;20.75;20.75;;;;;35.01;29.84;100962.81;4987835;28;45333;-73